Time;durP1;ratioP1;P1;durP2;ratioP2;P2;SDS_P1;SDS_P2;PMS_P1;PMS_P2;Temp;Humidity;BMP_temperature;BMP_pressure;BME280_temperature;BME280_humidity;BME280_pressure;Samples;Min_cycle;Max_cycle;Signal;HPM_P1;HPM_P2
2022/03/14 00:01:35;;;;;;;8.98;5.50;;;4.90;60.10;;;;;;5065917;28;20033;-50
2022/03/14 00:04:01;;;;;;;9.05;5.13;;;4.80;59.80;;;;;;5066312;28;20052;-48
2022/03/14 00:06:27;;;;;;;7.75;5.05;;;4.80;59.80;;;;;;5067161;28;20063;-50
2022/03/14 00:08:57;;;;;;;7.40;5.18;;;4.80;60.90;;;;;;5061634;28;20060;-53
2022/03/14 00:11:26;;;;;;;10.07;5.70;;;4.80;60.60;;;;;;5052478;28;20032;-49
2022/03/14 00:13:51;;;;;;;6.47;5.00;;;4.80;60.00;;;;;;5061450;28;20087;-51
2022/03/14 00:16:23;;;;;;;8.63;5.10;;;4.70;60.70;;;;;;5058882;28;20032;-50
2022/03/14 00:18:50;;;;;;;6.70;4.72;;;4.70;60.60;;;;;;5060457;28;20067;-49
2022/03/14 00:21:23;;;;;;;7.50;4.97;;;4.70;61.30;;;;;;5055239;28;20081;-51
2022/03/14 00:23:54;;;;;;;7.43;5.03;;;4.70;60.40;;;;;;5066437;28;20496;-50
2022/03/14 00:26:22;;;;;;;6.75;4.70;;;4.70;60.40;;;;;;5053960;28;20040;-51
2022/03/14 00:28:48;;;;;;;8.80;5.72;;;4.60;61.40;;;;;;5049509;28;20033;-51
2022/03/14 00:31:14;;;;;;;8.05;5.50;;;4.60;61.20;;;;;;5049920;28;20041;-49
2022/03/14 00:33:40;;;;;;;5.97;5.05;;;4.50;61.90;;;;;;5059286;28;20385;-50
2022/03/14 00:36:08;;;;;;;6.75;5.00;;;4.60;61.20;;;;;;5048646;28;20090;-49
2022/03/14 00:38:34;;;;;;;7.68;4.97;;;4.50;61.50;;;;;;5067121;28;20570;-50
2022/03/14 00:41:00;;;;;;;6.53;4.93;;;4.50;61.70;;;;;;5063945;28;20112;-49
2022/03/14 00:43:26;;;;;;;8.15;5.80;;;4.50;61.30;;;;;;5066793;28;20123;-50
2022/03/14 00:45:52;;;;;;;8.48;5.35;;;4.50;61.70;;;;;;5066688;28;20035;-50
2022/03/14 00:48:17;;;;;;;8.57;5.50;;;4.40;62.00;;;;;;5068495;28;20037;-50
2022/03/14 00:50:43;;;;;;;9.18;5.63;;;4.50;61.20;;;;;;5053893;28;20033;-49
2022/03/14 00:53:09;;;;;;;6.72;5.32;;;4.50;61.20;;;;;;5063955;28;20035;-51
2022/03/14 00:55:34;;;;;;;7.50;5.40;;;4.50;61.40;;;;;;5058965;28;20120;-49
2022/03/14 00:58:00;;;;;;;10.90;5.57;;;4.60;61.20;;;;;;5060780;28;20106;-53
2022/03/14 01:00:26;;;;;;;11.23;5.28;;;4.50;61.60;;;;;;5061672;28;20045;-48
2022/03/14 01:02:52;;;;;;;9.90;5.97;;;4.50;61.30;;;;;;5050444;28;20071;-50
2022/03/14 01:05:18;;;;;;;7.78;5.22;;;4.50;61.80;;;;;;5054567;28;20025;-48
2022/03/14 01:07:45;;;;;;;8.80;4.85;;;4.50;61.40;;;;;;5056759;28;20059;-49
2022/03/14 01:10:11;;;;;;;7.05;4.78;;;4.50;61.30;;;;;;5060228;28;20032;-48
2022/03/14 01:12:36;;;;;;;9.25;5.50;;;4.40;61.90;;;;;;5053894;28;20040;-49
2022/03/14 01:15:03;;;;;;;7.28;4.97;;;4.40;62.00;;;;;;5059468;28;20036;-50
2022/03/14 01:17:29;;;;;;;6.55;4.88;;;4.40;62.10;;;;;;5070030;28;20043;-50
2022/03/14 01:19:54;;;;;;;9.65;5.82;;;4.30;62.30;;;;;;5069953;28;20028;-52
2022/03/14 01:22:20;;;;;;;7.32;5.15;;;4.30;61.80;;;;;;5069425;28;20067;-49
2022/03/14 01:24:45;;;;;;;8.27;5.15;;;4.30;62.70;;;;;;5067818;28;20396;-52
2022/03/14 01:27:12;;;;;;;8.70;5.50;;;4.30;62.80;;;;;;5066722;28;20047;-50
2022/03/14 01:29:38;;;;;;;8.43;5.05;;;4.30;62.70;;;;;;5049941;28;20045;-49
2022/03/14 01:32:07;;;;;;;7.82;5.35;;;4.20;61.80;;;;;;5062161;28;20496;-51
2022/03/14 01:34:34;;;;;;;12.00;5.20;;;4.20;62.10;;;;;;5058000;28;20040;-51
2022/03/14 01:37:00;;;;;;;8.57;5.68;;;4.20;62.90;;;;;;5056418;28;20061;-51
2022/03/14 01:39:25;;;;;;;9.02;6.13;;;4.20;61.80;;;;;;5067377;28;20484;-51
2022/03/14 01:41:51;;;;;;;8.20;5.38;;;4.20;62.10;;;;;;5069269;28;20504;-51
2022/03/14 01:44:17;;;;;;;6.03;4.75;;;4.20;62.70;;;;;;5055303;28;20496;-49
2022/03/14 01:46:44;;;;;;;7.25;4.70;;;4.20;62.50;;;;;;5052150;28;20060;-50
2022/03/14 01:49:12;;;;;;;7.20;5.18;;;4.10;62.90;;;;;;5068585;28;20107;-53
2022/03/14 01:51:40;;;;;;;9.25;5.40;;;4.10;62.80;;;;;;5083153;28;20037;-49
2022/03/14 01:54:07;;;;;;;7.63;5.35;;;4.10;62.90;;;;;;5060272;28;20029;-50
2022/03/14 01:56:34;;;;;;;9.52;4.63;;;4.10;62.80;;;;;;5061256;28;20037;-50
2022/03/14 01:59:01;;;;;;;10.88;5.63;;;4.00;62.90;;;;;;5052635;28;20035;-51
2022/03/14 02:01:27;;;;;;;7.68;5.43;;;4.10;62.30;;;;;;5053689;28;20097;-52
2022/03/14 02:03:53;;;;;;;7.55;5.85;;;4.00;62.40;;;;;;5068728;28;20052;-50
2022/03/14 02:06:19;;;;;;;9.88;6.03;;;4.00;62.70;;;;;;5059257;28;20075;-47
2022/03/14 02:08:44;;;;;;;5.80;5.03;;;4.00;62.90;;;;;;5061487;28;20036;-51
2022/03/14 02:11:10;;;;;;;8.32;5.82;;;3.90;63.70;;;;;;5064195;28;20033;-48
2022/03/14 02:13:36;;;;;;;8.15;6.05;;;3.90;63.20;;;;;;5050534;28;20432;-50
2022/03/14 02:16:01;;;;;;;9.07;5.68;;;3.90;63.30;;;;;;5061856;28;20036;-49
2022/03/14 02:18:27;;;;;;;10.70;6.90;;;3.80;63.60;;;;;;5067683;28;20454;-52
2022/03/14 02:20:53;;;;;;;9.25;6.03;;;3.80;63.50;;;;;;5068631;28;20059;-51
2022/03/14 02:23:18;;;;;;;8.25;5.88;;;3.80;63.70;;;;;;5058795;28;20020;-50
2022/03/14 02:25:53;;;;;;;8.05;5.97;;;3.80;63.80;;;;;;5070525;28;20532;-49
2022/03/14 02:28:20;;;;;;;7.65;5.35;;;3.80;63.70;;;;;;5065840;28;20059;-50
2022/03/14 02:30:46;;;;;;;8.57;5.43;;;3.80;63.10;;;;;;5053641;28;20484;-50
2022/03/14 02:33:11;;;;;;;6.88;5.15;;;3.80;64.00;;;;;;5065280;28;20081;-51
2022/03/14 02:35:41;;;;;;;7.32;5.55;;;3.80;63.30;;;;;;5062526;28;20033;-49
2022/03/14 02:38:09;;;;;;;7.75;5.47;;;3.80;63.80;;;;;;5044336;28;20062;-49
2022/03/14 02:40:39;;;;;;;10.32;6.28;;;3.70;63.30;;;;;;5054588;28;20400;-50
2022/03/14 02:43:06;;;;;;;7.35;5.70;;;3.70;64.20;;;;;;5057259;28;20036;-49
2022/03/14 02:45:32;;;;;;;10.38;5.80;;;3.60;63.90;;;;;;5050885;28;20385;-48
2022/03/14 02:47:58;;;;;;;9.20;5.57;;;3.60;64.40;;;;;;5068571;28;20036;-52
2022/03/14 02:50:24;;;;;;;8.52;5.22;;;3.60;64.20;;;;;;5066751;28;20032;-49
2022/03/14 02:52:49;;;;;;;10.57;6.00;;;3.60;64.70;;;;;;5049481;28;20408;-50
2022/03/14 02:55:17;;;;;;;10.45;6.65;;;3.50;64.70;;;;;;5051285;28;20444;-50
2022/03/14 02:57:43;;;;;;;8.07;5.47;;;3.40;64.60;;;;;;5065603;28;20024;-48
2022/03/14 03:00:10;;;;;;;9.25;5.72;;;3.40;65.50;;;;;;5053733;28;20393;-49
2022/03/14 03:02:37;;;;;;;8.27;6.18;;;3.40;65.60;;;;;;5058377;28;20074;-49
2022/03/14 03:05:05;;;;;;;8.77;6.03;;;3.40;65.70;;;;;;5057691;28;20021;-51
2022/03/14 03:07:31;;;;;;;9.05;5.78;;;3.40;65.90;;;;;;5050627;28;20568;-48
2022/03/14 03:09:57;;;;;;;10.80;5.80;;;3.30;65.70;;;;;;5050916;28;20025;-49
2022/03/14 03:12:29;;;;;;;9.90;6.13;;;3.30;66.60;;;;;;5062492;28;20131;-48
2022/03/14 03:14:55;;;;;;;6.63;4.88;;;3.30;66.20;;;;;;5067171;28;20091;-50
2022/03/14 03:17:21;;;;;;;8.95;6.22;;;3.30;65.80;;;;;;5063503;28;20017;-48
2022/03/14 03:19:46;;;;;;;12.25;5.57;;;3.30;66.00;;;;;;5049484;28;20480;-51
2022/03/14 03:22:12;;;;;;;9.82;6.05;;;3.20;65.60;;;;;;5063634;28;20047;-52
2022/03/14 03:24:38;;;;;;;7.70;5.55;;;3.30;65.30;;;;;;5065396;28;20044;-51
2022/03/14 03:27:04;;;;;;;11.30;6.80;;;3.20;66.00;;;;;;5052025;28;20032;-52
2022/03/14 03:29:29;;;;;;;7.80;5.80;;;3.20;66.30;;;;;;5069149;28;20067;-51
2022/03/14 03:31:55;;;;;;;8.02;6.43;;;3.10;66.70;;;;;;5054785;28;20064;-52
2022/03/14 03:34:21;;;;;;;9.48;6.15;;;3.10;66.30;;;;;;5063695;28;20496;-53
2022/03/14 03:36:46;;;;;;;11.30;6.63;;;3.20;66.30;;;;;;5055719;28;20028;-49
2022/03/14 03:39:12;;;;;;;10.00;6.28;;;3.10;66.50;;;;;;5067309;28;20029;-50
2022/03/14 03:41:38;;;;;;;8.07;5.78;;;3.10;67.00;;;;;;5061912;28;20029;-51
2022/03/14 03:44:04;;;;;;;10.18;6.45;;;3.10;67.30;;;;;;5065026;28;20021;-49
2022/03/14 03:46:30;;;;;;;10.25;6.57;;;3.10;67.30;;;;;;5050236;28;20035;-49
2022/03/14 03:48:55;;;;;;;7.50;5.53;;;3.00;67.90;;;;;;5049197;28;20033;-49
2022/03/14 03:51:24;;;;;;;9.60;5.72;;;3.00;67.60;;;;;;5050682;28;20029;-50
2022/03/14 03:53:49;;;;;;;9.60;6.22;;;2.90;68.40;;;;;;5049777;28;20032;-50
2022/03/14 03:56:15;;;;;;;11.60;6.90;;;2.90;68.60;;;;;;5054108;28;20226;-51
2022/03/14 03:58:42;;;;;;;11.23;5.75;;;2.80;68.50;;;;;;5061384;28;20098;-52
2022/03/14 04:01:08;;;;;;;9.82;6.70;;;2.80;68.10;;;;;;5049483;28;20080;-48
2022/03/14 04:03:35;;;;;;;8.57;5.45;;;2.80;69.10;;;;;;5068164;28;20051;-49
2022/03/14 04:06:01;;;;;;;8.82;6.28;;;2.80;68.90;;;;;;5067485;28;20027;-50
2022/03/14 04:08:29;;;;;;;9.05;5.75;;;2.70;68.90;;;;;;5061187;28;20033;-49
2022/03/14 04:10:55;;;;;;;8.88;6.45;;;2.70;69.20;;;;;;5050034;28;20029;-49
2022/03/14 04:13:23;;;;;;;13.10;6.82;;;2.60;69.40;;;;;;5064777;28;20051;-52
2022/03/14 04:15:54;;;;;;;7.22;5.80;;;2.60;70.10;;;;;;5055023;28;20032;-49
2022/03/14 04:18:23;;;;;;;9.95;6.68;;;2.50;70.30;;;;;;5049827;28;20025;-49
2022/03/14 04:20:49;;;;;;;10.57;6.50;;;2.50;69.90;;;;;;5061595;28;20020;-49
2022/03/14 04:23:19;;;;;;;9.35;5.95;;;2.40;71.00;;;;;;5050373;28;20040;-48
2022/03/14 04:25:46;;;;;;;8.70;6.05;;;2.40;70.70;;;;;;5062465;28;20024;-49
2022/03/14 04:28:13;;;;;;;8.75;5.90;;;2.40;70.90;;;;;;5055932;28;20108;-49
2022/03/14 04:30:38;;;;;;;8.32;5.88;;;2.40;71.00;;;;;;5055339;28;20033;-49
2022/03/14 04:33:04;;;;;;;8.60;6.20;;;2.30;72.30;;;;;;5057985;28;20389;-48
2022/03/14 04:35:30;;;;;;;11.07;6.43;;;2.30;71.80;;;;;;5067737;28;20594;-51
2022/03/14 04:37:55;;;;;;;11.68;6.75;;;2.30;72.10;;;;;;5056310;28;20040;-51
2022/03/14 04:40:21;;;;;;;9.13;5.95;;;2.20;71.30;;;;;;5072397;28;20637;-49
2022/03/14 04:42:47;;;;;;;12.23;7.50;;;2.30;72.10;;;;;;5059111;28;20021;-50
2022/03/14 04:45:13;;;;;;;11.98;6.05;;;2.20;72.70;;;;;;5067614;28;20020;-52
2022/03/14 04:47:38;;;;;;;8.23;5.93;;;2.20;72.50;;;;;;5070741;28;20051;-50
2022/03/14 04:50:05;;;;;;;13.52;7.43;;;2.10;73.00;;;;;;5072213;28;20400;-52
2022/03/14 04:52:31;;;;;;;10.23;7.40;;;2.10;72.50;;;;;;5069714;28;20047;-49
2022/03/14 04:54:57;;;;;;;10.85;6.85;;;2.10;73.40;;;;;;5054833;28;20025;-50
2022/03/14 04:57:24;;;;;;;9.93;6.70;;;2.10;73.80;;;;;;5062624;28;20035;-51
2022/03/14 04:59:49;;;;;;;10.48;6.95;;;2.00;73.70;;;;;;5058844;28;20025;-50
2022/03/14 05:02:20;;;;;;;11.48;7.28;;;2.00;74.70;;;;;;5063101;28;20036;-52
2022/03/14 05:04:46;;;;;;;12.05;6.53;;;2.00;74.50;;;;;;5051878;28;20071;-49
2022/03/14 05:07:12;;;;;;;10.35;6.85;;;2.00;74.70;;;;;;5053954;28;20025;-53
2022/03/14 05:09:37;;;;;;;8.73;6.07;;;1.90;75.10;;;;;;5052357;28;20036;-48
2022/03/14 05:12:03;;;;;;;8.23;6.10;;;1.90;74.80;;;;;;5052264;28;20036;-50
2022/03/14 05:14:30;;;;;;;9.32;6.30;;;1.90;74.30;;;;;;5056746;28;20044;-50
2022/03/14 05:16:56;;;;;;;10.77;7.25;;;1.90;74.70;;;;;;5053281;28;20111;-50
2022/03/14 05:19:22;;;;;;;11.38;7.25;;;1.80;75.50;;;;;;5065771;28;20036;-50
2022/03/14 05:21:47;;;;;;;10.35;6.88;;;1.80;75.90;;;;;;5065258;28;20525;-49
2022/03/14 05:24:13;;;;;;;9.82;6.50;;;1.80;76.30;;;;;;5050233;28;20025;-51
2022/03/14 05:26:39;;;;;;;10.05;6.97;;;1.70;76.60;;;;;;5059597;28;20043;-50
2022/03/14 05:29:05;;;;;;;11.15;7.32;;;1.70;77.10;;;;;;5056741;28;20029;-50
2022/03/14 05:31:30;;;;;;;10.82;7.32;;;1.70;77.20;;;;;;5066184;28;20029;-51
2022/03/14 05:33:56;;;;;;;11.27;7.47;;;1.60;78.00;;;;;;5060549;28;20037;-50
2022/03/14 05:36:22;;;;;;;10.23;6.93;;;1.60;78.40;;;;;;5068599;28;20093;-50
2022/03/14 05:38:48;;;;;;;13.10;7.97;;;1.60;78.40;;;;;;5052481;28;20021;-49
2022/03/14 05:41:14;;;;;;;10.82;7.25;;;1.50;78.30;;;;;;5054287;28;20511;-49
2022/03/14 05:43:39;;;;;;;12.95;7.50;;;1.50;78.10;;;;;;5068809;28;20092;-49
2022/03/14 05:46:06;;;;;;;12.00;7.60;;;1.50;78.30;;;;;;5058143;28;20120;-50
2022/03/14 05:48:33;;;;;;;12.70;7.68;;;1.50;78.90;;;;;;5051336;28;20199;-50
2022/03/14 05:50:59;;;;;;;11.38;7.22;;;1.50;79.50;;;;;;5068917;28;20029;-49
2022/03/14 05:53:25;;;;;;;13.00;8.07;;;1.50;79.30;;;;;;5070313;28;20063;-51
2022/03/14 05:55:50;;;;;;;12.88;7.22;;;1.50;80.30;;;;;;5065600;28;20496;-49
2022/03/14 05:58:16;;;;;;;11.25;8.05;;;1.40;80.80;;;;;;5053940;28;20029;-49
2022/03/14 06:00:42;;;;;;;14.77;7.65;;;1.40;80.40;;;;;;5067337;28;20092;-50
2022/03/14 06:03:07;;;;;;;14.75;8.20;;;1.40;80.00;;;;;;5059397;28;20040;-49
2022/03/14 06:05:33;;;;;;;12.48;7.38;;;1.40;80.50;;;;;;5059295;28;20436;-51
2022/03/14 06:07:58;;;;;;;11.75;7.18;;;1.40;80.60;;;;;;5065139;28;20111;-49
2022/03/14 06:10:25;;;;;;;9.80;7.32;;;1.40;81.50;;;;;;5059778;28;20116;-50
2022/03/14 06:12:51;;;;;;;10.88;7.72;;;1.40;81.30;;;;;;5051305;28;20021;-51
2022/03/14 06:15:16;;;;;;;13.68;7.97;;;1.40;81.90;;;;;;5050208;28;20420;-50
2022/03/14 06:17:43;;;;;;;11.75;7.90;;;1.40;81.30;;;;;;5061127;28;20032;-52
2022/03/14 06:20:11;;;;;;;12.88;7.38;;;1.40;82.00;;;;;;5070723;28;20067;-50
2022/03/14 06:22:38;;;;;;;12.13;7.97;;;1.40;81.60;;;;;;5057498;28;20082;-50
2022/03/14 06:25:04;;;;;;;13.48;8.45;;;1.40;80.80;;;;;;5070614;28;20020;-49
2022/03/14 06:27:30;;;;;;;13.60;8.18;;;1.40;82.50;;;;;;5064555;28;20033;-49
2022/03/14 06:29:56;;;;;;;15.90;8.55;;;1.40;82.20;;;;;;5050257;28;20064;-50
2022/03/14 06:32:21;;;;;;;14.60;8.02;;;1.40;83.00;;;;;;5065799;28;20029;-50
2022/03/14 06:34:47;;;;;;;13.32;7.85;;;1.50;83.10;;;;;;5052967;28;20085;-49
2022/03/14 06:37:13;;;;;;;10.73;8.50;;;1.50;83.30;;;;;;5063545;28;20031;-51
2022/03/14 06:39:38;;;;;;;13.25;8.60;;;1.50;82.50;;;;;;5065926;28;20492;-48
2022/03/14 06:42:09;;;;;;;12.68;8.25;;;1.60;82.30;;;;;;5051907;28;20098;-49
2022/03/14 06:44:39;;;;;;;13.38;9.48;;;1.60;81.50;;;;;;5066194;28;20032;-52
2022/03/14 06:47:09;;;;;;;12.30;7.90;;;1.60;82.70;;;;;;5054346;28;20507;-49
2022/03/14 06:49:36;;;;;;;13.75;8.48;;;1.70;83.20;;;;;;5067250;28;20120;-51
2022/03/14 06:52:03;;;;;;;13.52;7.95;;;1.80;81.20;;;;;;5065421;28;20385;-48
2022/03/14 06:54:29;;;;;;;12.30;8.32;;;1.90;81.50;;;;;;5055775;28;20047;-49
2022/03/14 06:56:54;;;;;;;16.55;8.93;;;1.90;81.50;;;;;;5050571;28;20115;-49
2022/03/14 06:59:20;;;;;;;14.75;9.02;;;2.00;80.90;;;;;;5050470;28;20439;-50
2022/03/14 07:01:45;;;;;;;11.02;7.88;;;2.10;80.40;;;;;;5061912;28;20374;-48
2022/03/14 07:04:11;;;;;;;13.40;9.10;;;2.10;80.70;;;;;;5055141;28;20016;-51
2022/03/14 07:06:37;;;;;;;13.63;8.25;;;2.20;80.20;;;;;;5060573;28;20405;-52
2022/03/14 07:09:03;;;;;;;13.15;8.82;;;2.30;80.70;;;;;;5059506;28;20118;-51
2022/03/14 07:11:28;;;;;;;12.73;8.88;;;2.30;79.40;;;;;;5062566;28;20519;-49
2022/03/14 07:13:54;;;;;;;14.40;8.30;;;2.50;77.80;;;;;;5049156;28;20028;-49
2022/03/14 07:16:20;;;;;;;15.23;9.25;;;2.60;77.80;;;;;;5053711;28;20374;-49
2022/03/14 07:18:46;;;;;;;13.65;7.95;;;2.70;78.70;;;;;;5064229;28;20025;-52
2022/03/14 07:21:12;;;;;;;16.90;8.88;;;2.80;78.10;;;;;;5051556;28;20489;-50
2022/03/14 07:23:38;;;;;;;12.75;8.50;;;2.90;78.30;;;;;;5062274;28;20044;-51
2022/03/14 07:26:03;;;;;;;13.25;8.07;;;3.10;75.90;;;;;;5050549;28;20020;-49
2022/03/14 07:28:29;;;;;;;11.75;8.63;;;3.10;74.10;;;;;;5067297;28;20036;-49
2022/03/14 07:30:54;;;;;;;11.27;8.07;;;3.20;75.40;;;;;;5066614;28;20036;-48
2022/03/14 07:33:20;;;;;;;14.95;7.85;;;3.30;74.60;;;;;;5056193;28;20029;-52
2022/03/14 07:35:46;;;;;;;12.52;8.43;;;3.40;72.20;;;;;;5054414;28;20036;-50
2022/03/14 07:38:12;;;;;;;12.18;8.57;;;3.50;74.50;;;;;;5056366;28;20042;-49
2022/03/14 07:40:37;;;;;;;14.95;8.38;;;3.50;72.00;;;;;;5055934;28;20025;-49
2022/03/14 07:43:03;;;;;;;12.23;7.97;;;3.60;74.20;;;;;;5049109;28;20025;-49
2022/03/14 07:45:29;;;;;;;12.27;8.05;;;3.60;74.40;;;;;;5049373;28;20031;-49
2022/03/14 07:47:56;;;;;;;16.27;9.57;;;3.60;72.80;;;;;;5049413;28;20025;-52
2022/03/14 07:50:23;;;;;;;11.40;8.15;;;3.70;72.90;;;;;;5049096;28;20108;-48
2022/03/14 07:52:48;;;;;;;12.77;8.30;;;3.70;73.60;;;;;;5048599;28;20036;-50
2022/03/14 07:55:14;;;;;;;12.77;8.23;;;3.70;71.00;;;;;;5049184;28;20053;-52
2022/03/14 07:57:40;;;;;;;13.48;8.85;;;3.80;71.20;;;;;;5048832;28;20078;-50
2022/03/14 08:00:12;;;;;;;13.30;8.70;;;3.90;71.80;;;;;;5047577;28;20021;-53
2022/03/14 08:02:39;;;;;;;12.73;8.05;;;3.90;72.30;;;;;;5048489;28;20100;-49
2022/03/14 08:05:06;;;;;;;11.82;8.10;;;4.00;72.30;;;;;;5048875;28;20052;-50
2022/03/14 08:07:32;;;;;;;14.75;9.48;;;4.10;72.00;;;;;;5049519;28;20032;-49
2022/03/14 08:09:58;;;;;;;13.32;8.90;;;4.10;72.40;;;;;;5053123;28;20016;-47
2022/03/14 08:12:23;;;;;;;13.10;9.52;;;4.30;71.60;;;;;;5052388;28;20182;-50
2022/03/14 08:14:50;;;;;;;14.13;8.88;;;4.50;69.80;;;;;;5056248;28;20025;-52
2022/03/14 08:17:18;;;;;;;14.45;9.30;;;4.60;71.70;;;;;;5072684;28;20029;-51
2022/03/14 08:19:46;;;;;;;12.13;8.48;;;4.80;69.80;;;;;;5070572;28;20480;-51
2022/03/14 08:22:12;;;;;;;13.45;9.38;;;5.00;69.80;;;;;;5052720;28;20021;-49
2022/03/14 08:24:38;;;;;;;13.93;9.10;;;5.20;69.50;;;;;;5054027;28;20024;-50
2022/03/14 08:27:03;;;;;;;13.10;8.10;;;5.40;67.20;;;;;;5052776;28;20437;-49
2022/03/14 08:29:30;;;;;;;12.60;8.73;;;5.60;68.50;;;;;;5063187;28;20032;-52
2022/03/14 08:31:58;;;;;;;10.48;8.07;;;5.80;67.80;;;;;;5072615;28;20044;-48
2022/03/14 08:34:25;;;;;;;16.23;8.52;;;6.10;66.80;;;;;;5071335;28;20027;-54
2022/03/14 08:36:50;;;;;;;14.07;9.48;;;6.30;63.60;;;;;;5072461;28;20032;-52
2022/03/14 08:39:16;;;;;;;15.80;8.90;;;6.40;66.40;;;;;;5057791;28;20032;-48
2022/03/14 08:41:41;;;;;;;12.35;8.20;;;6.50;63.30;;;;;;5052587;28;20025;-53
2022/03/14 08:44:07;;;;;;;12.77;9.15;;;6.60;64.30;;;;;;5052983;28;20507;-51
2022/03/14 08:46:34;;;;;;;13.02;8.20;;;6.70;63.90;;;;;;5052459;28;20089;-49
2022/03/14 08:49:01;;;;;;;12.70;8.30;;;6.80;62.00;;;;;;5063900;28;20024;-50
2022/03/14 08:51:27;;;;;;;11.68;7.97;;;6.80;61.50;;;;;;5072035;28;20108;-49
2022/03/14 08:53:53;;;;;;;10.60;8.25;;;6.80;62.90;;;;;;5061459;28;20112;-51
2022/03/14 08:56:19;;;;;;;12.98;8.02;;;6.90;64.40;;;;;;5051623;28;20036;-52
2022/03/14 08:58:44;;;;;;;11.52;8.48;;;7.00;65.40;;;;;;5053250;28;20025;-52
2022/03/14 09:01:11;;;;;;;12.90;8.60;;;7.30;63.10;;;;;;5052415;28;20057;-55
2022/03/14 09:03:37;;;;;;;14.18;9.00;;;7.60;63.50;;;;;;5060307;28;20032;-49
2022/03/14 09:06:04;;;;;;;11.18;8.68;;;8.00;61.20;;;;;;5058441;28;20025;-51
2022/03/14 09:08:29;;;;;;;11.13;8.38;;;8.20;60.10;;;;;;5066471;28;20492;-53
2022/03/14 09:10:55;;;;;;;11.82;8.82;;;8.50;60.80;;;;;;5065436;28;20032;-54
2022/03/14 09:13:23;;;;;;;13.25;9.15;;;8.70;60.60;;;;;;5053769;28;20553;-51
2022/03/14 09:15:50;;;;;;;12.65;8.23;;;9.00;57.70;;;;;;5071809;28;20024;-50
2022/03/14 09:18:16;;;;;;;11.52;8.25;;;9.20;58.70;;;;;;5071775;28;20024;-51
2022/03/14 09:20:42;;;;;;;12.50;8.25;;;9.30;58.30;;;;;;5071157;28;20031;-53
2022/03/14 09:23:08;;;;;;;11.18;8.52;;;9.50;57.90;;;;;;5070954;28;20393;-53
2022/03/14 09:25:34;;;;;;;14.50;8.75;;;9.60;58.20;;;;;;5071195;28;20025;-53
2022/03/14 09:28:00;;;;;;;13.15;9.57;;;9.80;57.80;;;;;;5071679;28;20035;-51
2022/03/14 09:30:26;;;;;;;12.32;8.57;;;9.80;55.90;;;;;;5071682;28;20077;-52
2022/03/14 09:32:53;;;;;;;11.18;8.50;;;9.90;57.30;;;;;;5071078;28;20096;-51
2022/03/14 09:35:21;;;;;;;13.60;9.23;;;9.90;58.70;;;;;;5071746;28;20024;-52
2022/03/14 09:37:47;;;;;;;14.43;9.00;;;10.00;58.30;;;;;;5069910;28;20032;-50
2022/03/14 09:40:18;;;;;;;16.33;8.48;;;10.10;58.00;;;;;;5071552;28;20024;-51
2022/03/14 09:42:55;;;;;;;10.88;8.73;;;10.00;58.00;;;;;;5071185;28;20024;-54
2022/03/14 09:45:22;;;;;;;12.00;7.78;;;10.10;59.00;;;;;;5071282;28;20070;-51
2022/03/14 09:47:59;;;;;;;11.93;8.38;;;10.10;58.80;;;;;;5071376;28;20068;-51
2022/03/14 09:50:28;;;;;;;;;;;10.30;59.10;;;;;;5071973;28;20024;-52
2022/03/14 09:52:55;;;;;;;11.60;8.20;;;10.30;57.90;;;;;;5070935;28;20372;-50
2022/03/14 09:55:21;;;;;;;12.20;9.07;;;10.40;59.20;;;;;;5071130;28;20450;-50
2022/03/14 09:57:48;;;;;;;11.63;8.40;;;10.40;59.30;;;;;;5071178;28;20107;-53
2022/03/14 10:00:14;;;;;;;12.75;9.63;;;10.50;60.30;;;;;;5057536;28;20556;-51
2022/03/14 10:02:41;;;;;;;11.02;8.05;;;10.60;60.90;;;;;;5060393;28;20120;-54
2022/03/14 10:05:12;;;;;;;10.18;7.90;;;10.80;62.40;;;;;;5050591;28;20079;-51
2022/03/14 10:07:39;;;;;;;11.23;8.32;;;10.90;64.00;;;;;;5051812;28;20025;-52
2022/03/14 10:10:05;;;;;;;14.45;9.30;;;10.90;60.00;;;;;;5066339;28;20041;-53
2022/03/14 10:12:32;;;;;;;12.15;8.40;;;11.00;62.80;;;;;;5068551;28;20040;-52
2022/03/14 10:14:59;;;;;;;11.13;8.15;;;11.00;63.40;;;;;;5069597;28;20028;-55
2022/03/14 10:17:26;;;;;;;12.55;8.80;;;11.00;63.10;;;;;;5069110;28;20024;-56
2022/03/14 10:19:54;;;;;;;8.52;6.85;;;10.90;64.90;;;;;;5070921;28;20099;-51
2022/03/14 10:22:20;;;;;;;11.02;8.02;;;10.80;67.80;;;;;;5065550;28;20028;-55
2022/03/14 10:24:47;;;;;;;12.18;8.18;;;10.80;67.70;;;;;;5061940;28;20013;-55
2022/03/14 10:27:17;;;;;;;11.63;7.40;;;10.70;65.50;;;;;;5070329;28;20032;-54
2022/03/14 10:29:46;;;;;;;11.32;7.78;;;10.70;65.60;;;;;;5070405;28;20115;-52
2022/03/14 10:32:19;;;;;;;11.60;7.60;;;10.70;66.90;;;;;;5064621;28;20529;-53
2022/03/14 10:34:52;;;;;;;9.73;7.05;;;10.70;67.60;;;;;;5053013;28;20456;-52
2022/03/14 10:37:17;;;;;;;11.98;8.20;;;10.70;68.90;;;;;;5069829;28;20032;-55
2022/03/14 10:39:43;;;;;;;12.85;7.97;;;10.60;67.80;;;;;;5068880;28;20039;-54
2022/03/14 10:42:10;;;;;;;12.80;8.32;;;10.60;69.00;;;;;;5070052;28;20021;-53
2022/03/14 10:44:38;;;;;;;9.55;7.80;;;10.60;71.40;;;;;;5068157;28;20155;-52
2022/03/14 10:47:06;;;;;;;10.68;7.78;;;10.50;70.40;;;;;;5050252;28;20025;-50
2022/03/14 10:49:34;;;;;;;10.02;7.75;;;10.40;73.60;;;;;;5050530;28;20554;-52
2022/03/14 10:52:06;;;;;;;12.05;8.15;;;10.40;74.30;;;;;;5052659;28;20033;-55
2022/03/14 10:54:35;;;;;;;8.23;7.35;;;10.50;73.70;;;;;;5061512;28;20047;-53
2022/03/14 10:57:03;;;;;;;9.15;7.68;;;10.50;74.90;;;;;;5069733;28;20017;-53
2022/03/14 10:59:50;;;;;;;10.80;7.63;;;10.40;74.90;;;;;;5066894;28;20107;-55
2022/03/14 11:02:22;;;;;;;9.70;7.93;;;10.40;76.80;;;;;;5069675;28;20024;-55
2022/03/14 11:04:56;;;;;;;9.70;7.20;;;10.40;77.40;;;;;;5055970;28;20044;-52
2022/03/14 11:07:32;;;;;;;8.70;7.43;;;10.30;77.50;;;;;;5047990;28;20031;-51
2022/03/14 11:09:59;;;;;;;;;;;10.30;77.90;;;;;;5068237;28;20193;-52
2022/03/14 11:12:29;;;;;;;10.93;8.43;;;10.30;79.30;;;;;;5069248;28;19908;-55
2022/03/14 11:14:59;;;;;;;14.25;9.20;;;10.30;80.80;;;;;;5050472;28;20033;-52
2022/03/14 11:17:27;;;;;;;14.65;8.18;;;10.40;81.40;;;;;;5049358;28;20056;-53
2022/03/14 11:19:54;;;;;;;10.80;7.80;;;10.40;80.90;;;;;;5051089;28;20060;-51
2022/03/14 11:22:21;;;;;;;11.43;8.43;;;10.40;80.70;;;;;;5049299;28;20025;-54
2022/03/14 11:24:55;;;;;;;10.90;7.78;;;10.40;83.20;;;;;;5054581;28;20026;-53
2022/03/14 11:27:23;;;;;;;11.68;7.70;;;10.40;83.00;;;;;;5052168;28;20470;-54
2022/03/14 11:29:51;;;;;;;9.65;6.88;;;10.40;82.90;;;;;;5051537;28;20033;-52
2022/03/14 11:32:18;;;;;;;10.60;7.15;;;10.40;83.80;;;;;;5063633;28;20066;-54
2022/03/14 11:34:48;;;;;;;10.98;7.15;;;10.40;83.30;;;;;;5056044;28;20037;-52
2022/03/14 11:37:17;;;;;;;8.88;7.47;;;10.40;84.30;;;;;;5049928;28;20032;-50
2022/03/14 11:39:43;;;;;;;10.68;8.00;;;10.40;86.60;;;;;;5049414;28;20031;-54
2022/03/14 11:42:11;;;;;;;10.27;7.80;;;10.30;87.70;;;;;;5067557;28;20017;-53
2022/03/14 11:44:38;;;;;;;10.18;7.45;;;10.40;89.40;;;;;;5056335;28;20032;-51
2022/03/14 11:47:04;;;;;;;8.57;7.13;;;10.30;90.30;;;;;;5050526;28;20033;-53
2022/03/14 11:49:31;;;;;;;11.18;7.13;;;10.30;90.20;;;;;;5050410;28;20029;-51
2022/03/14 11:52:09;;;;;;;9.07;7.03;;;10.20;91.00;;;;;;5062587;28;20025;-53
2022/03/14 11:54:59;;;;;;;10.10;7.40;;;10.20;92.00;;;;;;5052589;28;20025;-50
2022/03/14 11:57:37;;;;;;;7.97;7.18;;;10.20;93.20;;;;;;5067939;28;20032;-56
2022/03/14 12:00:21;;;;;;;8.90;6.65;;;10.20;97.80;;;;;;5048551;28;20103;-53
2022/03/14 12:02:51;;;;;;;7.53;6.30;;;10.10;99.90;;;;;;5052088;28;20020;-51
2022/03/14 12:05:33;;;;;;;11.02;6.95;;;10.10;99.90;;;;;;5048837;28;20025;-52
2022/03/14 12:08:15;;;;;;;7.68;6.82;;;10.10;99.90;;;;;;5049104;28;20091;-51
2022/03/14 12:10:42;;;;;;;9.13;6.88;;;10.10;99.90;;;;;;5049290;28;20025;-51
2022/03/14 12:13:08;;;;;;;8.95;6.70;;;10.10;99.90;;;;;;5048508;28;20503;-52
2022/03/14 12:15:37;;;;;;;9.95;7.53;;;10.20;99.90;;;;;;5047897;28;20054;-51
2022/03/14 12:18:25;;;;;;;10.00;6.15;;;10.20;99.90;;;;;;5049102;28;20033;-53
2022/03/14 12:20:59;;;;;;;7.88;6.80;;;10.30;99.90;;;;;;5064342;28;20057;-53
2022/03/14 12:23:26;;;;;;;7.75;6.55;;;10.30;99.90;;;;;;5048486;28;20025;-52
2022/03/14 12:25:52;;;;;;;8.32;7.15;;;10.20;99.90;;;;;;5049089;28;20607;-52
2022/03/14 12:28:24;;;;;;;8.68;7.75;;;10.10;99.90;;;;;;5049124;28;20086;-51
2022/03/14 12:30:50;;;;;;;9.05;6.80;;;10.10;99.90;;;;;;5048898;28;20032;-55
2022/03/14 12:33:43;;;;;;;7.93;6.85;;;10.10;99.90;;;;;;5048465;28;20444;-52
2022/03/14 12:36:22;;;;;;;9.90;7.55;;;10.00;99.90;;;;;;5043692;28;20047;-55
2022/03/14 12:39:09;;;;;;;7.95;6.68;;;9.90;99.90;;;;;;5048441;28;20572;-51
2022/03/14 12:41:40;;;;;;;9.65;7.28;;;9.90;99.90;;;;;;5048565;28;20017;-53
2022/03/14 12:44:35;;;;;;;11.32;7.00;;;10.00;99.90;;;;;;5048138;28;20480;-55
2022/03/14 12:47:03;;;;;;;10.82;8.52;;;10.10;99.90;;;;;;5035826;28;20079;-50
2022/03/14 12:49:40;;;;;;;14.85;10.70;;;10.20;99.90;;;;;;5052195;28;20619;-52